aviador You're here:

KOVE Decoded Metar

OROVILLE in CA, USA
Report Time2017-09-24 00:53:00
UTC Time2017-09-24 01:27:43
Flight Rules vfr VFR
Wind310° at 09 Gusting to 18 kt
W.Decomp.*RWY 31: 8.7 kt HW 2.5 kt LCW
RWY 02: 0.6 kt HW 9 kt LCW
W.Rank310° ranks 9
Current wind is above 310° avg. (6.2)
Visibility9999 m
Phenomena:N/A
Clouds:N/A
Expected CloudBase > 10,400 ft AGL from Temp-Dew spread
CeilingNone
Temp26°C (ISA +11)
Dew Point00°C (18% RH)
AAT20.7°C
QNH1011 hPa
Density Alt1,660 ft
Elevation190 ft
Report Wrong Elevation
Raw Report
KOVE 240053Z AUTO 31009G18KT 10SM CLR 26/00 A2986 RMK AO2 SLP113
T02560000 $=

Extra information for KOVE:More info

Metar Taf Metar & Taf Last 4 Metars F.Rules Stats Wind Profile Meteogram Temp Stats Airport Information Weather charts Add Link Nearby VenuesMetar ALERT Operation Metar Decoded Social comments

AIRNAV info for KOVE